Aérodrome :
LOGIN :

S'inscrire | Disclaimer

   EN    FR    IT 

 










Légende :    VFR   VFR Marginal   IFR   IFR Intensif   IFR Très Intensif
Visi : 
Plafond : 
>= 8 km
>= 3000ft
5 à 8 km
1000 à 3000 ft
1500m à 5 km
500 à 1000 ft
800 à 1500m
200 à 500 ft
< 800m
< 200 ft
Symboles :   Orages  Brouillard  Fortes neiges  Fortes précipitations  Vent > 20 kt
SIGMETs :   Divers  Orages  Givrage  Turbulence  Onde Orograph.  Cendres Volcan.






- Altitude de l'aérodrome : 14 ft
- Code IATA : BRE


EDDW - Bremen Neuenland

DERNIER METAR :
  • 251620Z 24005KT CAVOK 01/M02 Q1005 NOSIG

METARs EXPIRÉS :
  • 251550Z 24006KT CAVOK 01/M02 Q1005 NOSIG
  • 251520Z 25007KT 9999 FEW020 02/M01 Q1005 NOSIG
  • 251450Z 26007KT 9999 FEW020 03/M01 Q1004 NOSIG
  • 251420Z 26007KT 230V300 9999 FEW020 04/M01 Q1004 NOSIG
  • 251350Z 26009KT 9999 FEW018 04/M01 Q1004 NOSIG

TAF TAF EDDW
Valide du 25 à 12h jusqu'au 26 à 12h UTC


251100Z 2512/2612 25005KT 9000 SCT012
TEMPO 2519/2521 19010KT BKN012
TEMPO 2521/2606 VRB03KT 4000 -SN OVC008
PROB30
TEMPO 2523/2603 1000 SHSN VV003
BECMG 2602/2605 33005KT
PROB30
TEMPO 2606/2609 1200 BCFG BKN003



MET'MAP, la Météo Aéronautique d'un coup d'oeil ! - Copyright ORBIFLY Décembre 2007 - Disclaimer

ORBIFLY MET'MAP TEAM :

Programmation & Développement : Alexandra Zaïnal
Sur une idée originale de : Baudouin d'Aumeries
Assistance à la programmation : Marc-Olivier Méhu
Soutien technique & logistique : Manuel Goepfert

Contact : metmap@orbifly.com




SOURCES & CREDITS :

   NOAA